createdAt,value
2023-05-02T00:02:30.163Z,100902.28
2023-05-02T00:05:13.857Z,100901.25
2023-05-02T00:07:57.721Z,100896.47
2023-05-02T00:10:41.228Z,100900.31
2023-05-02T00:13:24.806Z,100893.44
2023-05-02T00:16:08.343Z,100887.81
2023-05-02T00:18:51.869Z,100889.28
2023-05-02T00:21:35.510Z,100884.66
2023-05-02T00:24:19.453Z,100888.63
2023-05-02T00:27:03.086Z,100888.47
2023-05-02T00:29:47.999Z,100892.91
2023-05-02T00:32:32.053Z,100884.91
2023-05-02T00:35:15.725Z,100891.59
2023-05-02T00:38:00.257Z,100883.22
2023-05-02T00:40:49.912Z,100880.66
2023-05-02T00:43:33.563Z,100882.63
2023-05-02T00:46:17.820Z,100882.72
2023-05-02T00:49:02.025Z,100882.69
2023-05-02T00:51:45.669Z,100883.94
2023-05-02T00:54:29.728Z,100880.16
2023-05-02T00:57:13.849Z,100892.06
2023-05-02T00:59:57.992Z,100884.84
2023-05-02T01:03:05.727Z,100880.38
2023-05-02T01:06:05.584Z,100878.75
2023-05-02T01:09:07.408Z,100882.69
2023-05-02T01:12:19.021Z,100886.31
2023-05-02T01:15:10.389Z,100892.72
2023-05-02T01:17:56.736Z,100884.16
2023-05-02T01:20:44.984Z,100886.44
2023-05-02T01:24:00.254Z,100891.78
2023-05-02T01:27:11.900Z,100887.66
2023-05-02T01:30:01.180Z,100884.91
2023-05-02T01:32:48.802Z,100894.81
2023-05-02T01:35:37.484Z,100896.44
2023-05-02T01:38:25.506Z,100897.53
2023-05-02T01:41:12.385Z,100896.50
2023-05-02T01:43:59.488Z,100898.50
2023-05-02T01:46:45.028Z,100900.78
2023-05-02T01:49:31.994Z,100907.38
2023-05-02T01:52:19.508Z,100902.16
2023-05-02T01:55:05.212Z,100909.72
2023-05-02T01:57:52.424Z,100900.50
2023-05-02T02:00:38.986Z,100909.19
2023-05-02T02:03:23.817Z,100913.78
2023-05-02T02:06:13.298Z,100911.50
2023-05-02T02:08:57.008Z,100911.44
2023-05-02T02:11:53.779Z,100907.16
2023-05-02T02:14:46.438Z,100907.06
2023-05-02T02:17:48.188Z,100912.78
2023-05-02T02:20:35.117Z,100911.19
2023-05-02T02:23:23.536Z,100914.84
2023-05-02T02:26:10.021Z,100909.44
2023-05-02T02:28:53.894Z,100923.72
2023-05-02T02:31:39.670Z,100931.31
2023-05-02T02:34:23.476Z,100938.63
2023-05-02T02:37:31.052Z,100945.94
2023-05-02T02:40:42.336Z,100944.34
2023-05-02T02:44:25.935Z,100952.63
2023-05-02T02:47:23.874Z,100958.56
2023-05-02T02:50:54.827Z,100959.09
2023-05-02T02:54:18.953Z,100961.00
2023-05-02T02:57:24.527Z,100970.59
2023-05-02T03:00:22.446Z,100964.78
2023-05-02T03:03:08.300Z,100975.81
2023-05-02T03:05:52.365Z,100980.34
2023-05-02T03:08:41.336Z,100982.75
2023-05-02T03:11:29.447Z,100993.50
2023-05-02T03:14:14.183Z,100994.34
2023-05-02T03:16:59.118Z,101008.78
2023-05-02T03:19:43.029Z,101013.78
2023-05-02T03:22:26.684Z,101021.13
2023-05-02T03:25:10.524Z,101021.63
2023-05-02T03:27:58.417Z,101025.28
2023-05-02T03:30:42.362Z,101037.19
2023-05-02T03:33:25.975Z,101037.81
2023-05-02T03:36:09.710Z,101040.91
2023-05-02T03:38:53.981Z,101050.22
2023-05-02T03:41:38.189Z,101050.03
2023-05-02T03:44:25.130Z,101047.19
2023-05-02T03:47:09.596Z,101049.00
2023-05-02T03:49:57.571Z,101058.44
2023-05-02T03:52:41.378Z,101062.47
2023-05-02T03:55:25.177Z,101056.63
2023-05-02T03:58:11.632Z,101062.69
2023-05-02T04:00:55.611Z,101068.78
2023-05-02T04:03:40.012Z,101069.81
2023-05-02T04:06:24.761Z,101072.69
2023-05-02T04:09:14.016Z,101084.88
2023-05-02T04:12:05.169Z,101089.72
2023-05-02T04:14:50.461Z,101092.72
2023-05-02T04:17:35.870Z,101100.06
2023-05-02T04:20:20.858Z,101104.09
2023-05-02T04:23:07.226Z,101110.44
2023-05-02T04:25:55.058Z,101106.28
2023-05-02T04:28:41.887Z,101106.59
2023-05-02T04:31:27.552Z,101109.50
2023-05-02T04:34:11.487Z,101116.53
2023-05-02T04:37:01.657Z,101124.09
2023-05-02T04:39:45.537Z,101125.84
2023-05-02T04:42:35.761Z,101134.78
2023-05-02T04:45:40.299Z,101138.22
2023-05-02T04:48:29.984Z,101140.38
2023-05-02T04:51:15.528Z,101141.81
2023-05-02T04:54:02.051Z,101147.81
2023-05-02T04:56:46.132Z,101153.84
2023-05-02T04:59:30.665Z,101152.06
2023-05-02T05:02:16.101Z,101155.84
2023-05-02T05:05:02.929Z,101160.59
2023-05-02T05:07:46.665Z,101168.44
2023-05-02T05:10:31.714Z,101179.66
2023-05-02T05:13:15.539Z,101185.66
2023-05-02T05:16:00.670Z,101187.56
2023-05-02T05:18:47.370Z,101189.31
2023-05-02T05:21:31.815Z,101185.94
2023-05-02T05:24:16.601Z,101190.84
2023-05-02T05:27:00.269Z,101193.03
2023-05-02T05:29:43.770Z,101203.00
2023-05-02T05:32:27.465Z,101206.41
2023-05-02T05:35:11.368Z,101205.25
2023-05-02T05:37:55.192Z,101222.00
2023-05-02T05:40:38.859Z,101219.75
2023-05-02T05:43:24.351Z,101225.34
2023-05-02T05:46:08.228Z,101228.25
2023-05-02T05:48:53.580Z,101234.69
2023-05-02T05:51:37.443Z,101239.66
2023-05-02T05:54:21.410Z,101234.19
2023-05-02T05:57:04.982Z,101240.50
2023-05-02T05:59:48.873Z,101239.53
2023-05-02T06:02:33.430Z,101248.28
2023-05-02T06:05:17.441Z,101251.56
2023-05-02T06:08:03.997Z,101250.81
2023-05-02T06:10:47.820Z,101258.94
2023-05-02T06:13:31.430Z,101268.75
2023-05-02T06:16:15.094Z,101267.31
2023-05-02T06:18:58.642Z,101277.78
2023-05-02T06:21:42.338Z,101284.19
2023-05-02T06:24:25.846Z,101279.53
2023-05-02T06:27:09.330Z,101290.56
2023-05-02T06:29:53.818Z,101297.72
2023-05-02T06:32:37.537Z,101307.41
2023-05-02T06:35:21.244Z,101299.78
2023-05-02T06:38:04.777Z,101310.41
2023-05-02T06:40:58.352Z,101313.28
2023-05-02T06:43:41.967Z,101318.94
2023-05-02T06:46:30.918Z,101329.91
2023-05-02T06:49:14.438Z,101332.44
2023-05-02T06:51:57.957Z,101334.19
2023-05-02T06:54:42.525Z,101335.16
2023-05-02T06:57:26.242Z,101345.78
2023-05-02T07:00:10.931Z,101349.53
2023-05-02T07:02:54.574Z,101362.19
2023-05-02T07:05:38.140Z,101363.47
2023-05-02T07:08:24.015Z,101380.88
2023-05-02T07:11:07.561Z,101371.22
2023-05-02T07:13:51.127Z,101375.91
2023-05-02T07:16:34.766Z,101384.16
2023-05-02T07:19:18.344Z,101392.66
2023-05-02T07:22:01.942Z,101400.38
2023-05-02T07:24:45.574Z,101394.31
2023-05-02T07:27:29.262Z,101398.03
2023-05-02T07:30:13.474Z,101396.44
2023-05-02T07:32:57.034Z,101401.09
2023-05-02T07:35:40.549Z,101406.66
2023-05-02T07:38:24.099Z,101406.00
2023-05-02T07:41:07.594Z,101416.81
2023-05-02T07:43:51.349Z,101421.19
2023-05-02T07:46:34.939Z,101415.66
2023-05-02T07:49:19.724Z,101424.53
2023-05-02T07:52:04.135Z,101432.06
2023-05-02T07:54:51.944Z,101432.53
2023-05-02T07:57:35.508Z,101429.41
2023-05-02T08:00:19.586Z,101439.00
2023-05-02T08:03:03.263Z,101433.94
2023-05-02T08:05:46.931Z,101440.16
2023-05-02T08:08:30.492Z,101448.22
2023-05-02T08:11:13.988Z,101439.28
2023-05-02T08:13:57.476Z,101446.19
2023-05-02T08:16:41.811Z,101443.66
2023-05-02T08:19:27.300Z,101450.47
2023-05-02T08:22:10.869Z,101452.13
2023-05-02T08:24:54.478Z,101460.84
2023-05-02T08:27:37.992Z,101462.69
2023-05-02T08:30:24.717Z,101471.66
2023-05-02T08:33:08.341Z,101462.41
2023-05-02T08:35:52.011Z,101481.19
2023-05-02T08:38:35.577Z,101467.06
2023-05-02T08:41:19.909Z,101476.88
2023-05-02T08:44:04.371Z,101491.72
2023-05-02T08:46:51.175Z,101481.97
2023-05-02T08:49:36.336Z,101486.63
2023-05-02T08:52:21.221Z,101492.63
2023-05-02T08:55:07.584Z,101488.97
2023-05-02T08:57:51.285Z,101498.47
2023-05-02T09:00:43.188Z,101499.94
2023-05-02T09:03:37.164Z,101501.88
2023-05-02T09:06:22.808Z,101507.13
2023-05-02T09:09:07.079Z,101518.00
2023-05-02T09:11:51.792Z,101514.16
2023-05-02T09:14:35.325Z,101514.25
2023-05-02T09:17:18.899Z,101528.13
2023-05-02T09:20:03.598Z,101529.09
2023-05-02T09:22:52.975Z,101537.06
2023-05-02T09:25:37.934Z,101529.97
2023-05-02T09:28:21.583Z,101533.75
2023-05-02T09:31:10.844Z,101538.34
2023-05-02T09:33:55.417Z,101545.22
2023-05-02T09:36:52.259Z,101542.63
2023-05-02T09:39:35.913Z,101549.72
2023-05-02T09:42:31.600Z,101553.94
2023-05-02T09:45:24.544Z,101551.78
2023-05-02T09:48:08.052Z,101547.19
2023-05-02T09:50:51.654Z,101550.25
2023-05-02T09:53:45.103Z,101551.34
2023-05-02T09:56:28.968Z,101551.09
2023-05-02T09:59:14.759Z,101557.59
2023-05-02T10:02:02.061Z,101567.28
2023-05-02T10:04:48.507Z,101562.66
2023-05-02T10:07:34.369Z,101561.31
2023-05-02T10:10:19.137Z,101573.59
2023-05-02T10:13:05.319Z,101583.28
2023-05-02T10:15:56.661Z,101568.34
2023-05-02T10:18:52.745Z,101581.47
2023-05-02T10:21:37.300Z,101584.31
2023-05-02T10:24:21.678Z,101585.72
2023-05-02T10:27:05.916Z,101584.25
2023-05-02T10:29:51.952Z,101592.94
2023-05-02T10:32:38.185Z,101593.38
2023-05-02T10:35:23.231Z,101586.94
2023-05-02T10:38:07.913Z,101597.66
2023-05-02T10:41:03.330Z,101598.28
2023-05-02T10:43:49.380Z,101601.09
2023-05-02T10:46:36.047Z,101596.75
2023-05-02T10:49:19.828Z,101602.41
2023-05-02T10:52:41.247Z,101611.03
2023-05-02T10:55:24.913Z,101619.28
2023-05-02T10:58:08.262Z,101629.59
2023-05-02T11:00:51.942Z,101646.16
2023-05-02T11:04:15.026Z,101641.81
2023-05-02T11:07:01.319Z,101655.84
2023-05-02T11:09:45.100Z,101650.63
2023-05-02T11:12:50.075Z,101653.94
2023-05-02T11:15:34.004Z,101654.31
2023-05-02T11:18:17.666Z,101661.13
2023-05-02T11:21:33.016Z,101674.69
2023-05-02T11:24:42.866Z,101680.63
2023-05-02T11:27:29.537Z,101692.69
2023-05-02T11:30:13.824Z,101688.03
2023-05-02T11:38:07.923Z,101714.81
2023-05-02T11:41:03.037Z,101713.25
2023-05-02T11:43:46.581Z,101723.63
2023-05-02T11:46:30.869Z,101735.22
2023-05-02T11:49:15.222Z,101731.03
2023-05-02T11:51:59.495Z,101735.69
2023-05-02T11:54:43.161Z,101738.72
2023-05-02T11:57:26.768Z,101741.66
2023-05-02T12:00:13.920Z,101726.88
2023-05-02T12:02:57.490Z,101739.66
2023-05-02T12:05:41.126Z,101732.41
2023-05-02T12:08:27.973Z,101737.75
2023-05-02T12:11:16.719Z,101736.19
2023-05-02T12:14:00.497Z,101737.69
2023-05-02T12:16:44.186Z,101745.72
2023-05-02T12:19:28.498Z,101739.97
2023-05-02T12:22:13.583Z,101764.81
2023-05-02T12:24:57.595Z,101771.81
2023-05-02T12:28:00.557Z,101759.88
2023-05-02T12:30:48.252Z,101762.44
2023-05-02T12:33:43.553Z,101767.88
2023-05-02T12:36:28.817Z,101782.19
2023-05-02T12:39:12.604Z,101768.06
2023-05-02T12:42:22.213Z,101781.34
2023-05-02T12:45:21.895Z,101780.22
2023-05-02T12:48:26.968Z,101780.94
2023-05-02T12:51:24.817Z,101790.03
2023-05-02T12:54:08.465Z,101783.44
2023-05-02T12:56:52.418Z,101782.56
2023-05-02T12:59:36.607Z,101778.88
2023-05-02T13:02:23.054Z,101778.22
2023-05-02T13:05:15.417Z,101774.66
2023-05-02T13:07:59.557Z,101796.91
2023-05-02T13:10:43.344Z,101793.81
2023-05-02T13:13:26.914Z,101802.69
2023-05-02T13:16:11.016Z,101794.03
2023-05-02T13:18:54.804Z,101799.50
2023-05-02T13:21:38.394Z,101794.38
2023-05-02T13:24:21.941Z,101816.06
2023-05-02T13:27:05.608Z,101805.63
2023-05-02T13:29:52.558Z,101807.19
2023-05-02T13:32:36.203Z,101810.31
2023-05-02T13:35:19.716Z,101808.00
2023-05-02T13:38:04.224Z,101814.03
2023-05-02T13:40:47.769Z,101825.50
2023-05-02T13:43:31.413Z,101825.16
2023-05-02T13:46:15.226Z,101819.81
2023-05-02T13:48:59.329Z,101815.25
2023-05-02T13:51:43.186Z,101812.97
2023-05-02T13:54:26.920Z,101815.25
2023-05-02T13:57:10.440Z,101825.31
2023-05-02T13:59:54.011Z,101837.56
2023-05-02T14:02:39.495Z,101832.88
2023-05-02T14:05:23.529Z,101832.56
2023-05-02T14:08:07.326Z,101839.03
2023-05-02T14:10:52.656Z,101826.63
2023-05-02T14:17:27.264Z,101846.66
2023-05-02T14:20:11.688Z,101849.38
2023-05-02T14:22:55.471Z,101843.91
2023-05-02T14:25:39.565Z,101855.28
2023-05-02T14:28:23.677Z,101857.44
2023-05-02T14:31:08.034Z,101871.13
2023-05-02T14:33:51.991Z,101861.16
2023-05-02T14:36:35.658Z,101870.66
2023-05-02T14:39:19.436Z,101871.97
2023-05-02T14:42:06.661Z,101874.41
2023-05-02T14:44:51.272Z,101880.25
2023-05-02T14:47:35.083Z,101877.00
2023-05-02T14:50:18.753Z,101885.72
2023-05-02T14:53:02.305Z,101891.28
2023-05-02T14:55:46.075Z,101893.78
2023-05-02T14:58:30.582Z,101899.31
2023-05-02T15:01:23.118Z,101904.97
2023-05-02T15:04:08.162Z,101897.63
2023-05-02T15:06:54.703Z,101891.81
2023-05-02T15:09:38.428Z,101899.75
2023-05-02T15:12:22.111Z,101902.69
2023-05-02T15:15:06.366Z,101907.03
2023-05-02T15:17:50.665Z,101918.41
2023-05-02T15:20:34.386Z,101909.34
2023-05-02T15:23:18.399Z,101914.28
2023-05-02T15:26:02.034Z,101913.81
2023-05-02T15:28:45.918Z,101926.59
2023-05-02T15:31:29.478Z,101930.66
2023-05-02T15:34:13.201Z,101932.59
2023-05-02T15:37:01.214Z,101936.31
2023-05-02T15:39:44.799Z,101939.47
2023-05-02T15:42:28.378Z,101936.31
2023-05-02T15:45:15.788Z,101943.34
2023-05-02T15:47:59.407Z,101945.47
2023-05-02T15:50:43.306Z,101941.28
2023-05-02T15:53:28.268Z,101945.13
2023-05-02T15:56:12.612Z,101944.13
2023-05-02T15:58:56.677Z,101953.81
2023-05-02T16:01:40.227Z,101953.13
2023-05-02T16:04:25.354Z,101949.47
2023-05-02T16:07:10.043Z,101955.88
2023-05-02T16:14:04.708Z,101959.50
2023-05-02T16:16:48.278Z,101954.41
2023-05-02T16:19:31.847Z,101965.03
2023-05-02T16:22:16.381Z,101961.00
2023-05-02T16:25:00.302Z,101961.72
2023-05-02T16:27:44.590Z,101964.03
2023-05-02T16:30:28.610Z,101962.03
2023-05-02T16:33:12.213Z,101969.81
2023-05-02T16:36:04.005Z,101974.56
2023-05-02T16:38:47.687Z,101961.09
2023-05-02T16:41:31.352Z,101964.25
2023-05-02T16:44:14.912Z,101961.97
2023-05-02T16:46:58.506Z,101963.34
2023-05-02T16:49:42.011Z,101964.19
2023-05-02T16:52:26.592Z,101962.28
2023-05-02T16:55:10.437Z,101961.22
2023-05-02T16:57:54.017Z,101963.94
2023-05-02T17:00:37.727Z,101963.81
2023-05-02T17:03:21.357Z,101962.72
2023-05-02T17:06:04.998Z,101965.16
2023-05-02T17:08:48.541Z,101967.38
2023-05-02T17:11:32.079Z,101977.91
2023-05-02T17:14:16.254Z,101984.69
2023-05-02T17:17:03.422Z,101972.16
2023-05-02T17:19:48.067Z,101977.81
2023-05-02T17:22:32.744Z,101981.66
2023-05-02T17:25:20.358Z,101987.63
2023-05-02T17:28:04.270Z,101977.41
2023-05-02T17:30:49.727Z,101977.13
2023-05-02T17:33:33.466Z,101987.03
2023-05-02T17:36:16.981Z,101982.94
2023-05-02T17:39:00.524Z,101991.56
2023-05-02T17:41:44.058Z,101991.16
2023-05-02T17:44:27.652Z,101989.66
2023-05-02T17:47:11.317Z,101992.72
2023-05-02T17:49:54.919Z,102000.09
2023-05-02T17:52:39.018Z,101994.72
2023-05-02T17:55:22.521Z,101994.59
2023-05-02T17:58:08.548Z,101997.13
2023-05-02T18:00:52.092Z,102000.38
2023-05-02T18:03:36.624Z,101997.94
2023-05-02T18:06:20.320Z,102014.75
2023-05-02T18:09:03.895Z,102013.72
2023-05-02T18:11:54.125Z,102013.03
2023-05-02T18:14:37.630Z,102012.03
2023-05-02T18:17:21.532Z,102016.25
2023-05-02T18:20:07.265Z,102029.44
2023-05-02T18:22:51.770Z,102022.63
2023-05-02T18:25:36.048Z,102022.59
2023-05-02T18:28:19.748Z,102023.97
2023-05-02T18:31:04.297Z,102023.94
2023-05-02T18:33:48.012Z,102022.44
2023-05-02T18:36:31.687Z,102032.47
2023-05-02T18:39:15.226Z,102030.94
2023-05-02T18:42:03.089Z,102023.47
2023-05-02T18:44:46.807Z,102030.66
2023-05-02T18:47:31.633Z,102031.53
2023-05-02T18:50:15.225Z,102025.16
2023-05-02T18:52:58.834Z,102028.56
2023-05-02T18:55:42.429Z,102034.56
2023-05-02T18:58:26.139Z,102036.22
2023-05-02T19:01:18.083Z,102040.81
2023-05-02T19:04:02.342Z,102038.38
2023-05-02T19:06:46.275Z,102040.09
2023-05-02T19:09:29.822Z,102044.22
2023-05-02T19:12:13.316Z,102045.78
2023-05-02T19:14:56.840Z,102054.19
2023-05-02T19:17:40.423Z,102049.47
2023-05-02T19:20:23.962Z,102055.84
2023-05-02T19:23:19.098Z,102062.22
2023-05-02T19:26:03.506Z,102061.63
2023-05-02T19:28:47.205Z,102065.97
2023-05-02T19:31:31.637Z,102067.75
2023-05-02T19:34:15.293Z,102075.47
2023-05-02T19:36:58.824Z,102079.41
2023-05-02T19:39:42.324Z,102078.16
2023-05-02T19:42:25.880Z,102081.88
2023-05-02T19:45:10.095Z,102081.94
2023-05-02T19:47:53.795Z,102081.66
2023-05-02T19:50:37.945Z,102085.25
2023-05-02T19:53:21.607Z,102079.56
2023-05-02T19:56:07.445Z,102085.66
2023-05-02T19:58:51.753Z,102091.72
2023-05-02T20:01:35.954Z,102091.09
2023-05-02T20:04:20.467Z,102101.53
2023-05-02T20:07:03.974Z,102096.94
2023-05-02T20:09:47.472Z,102097.97
2023-05-02T20:12:31.057Z,102108.56
2023-05-02T20:15:16.961Z,102099.03
2023-05-02T20:18:02.266Z,102101.09
2023-05-02T20:20:46.290Z,102102.41
2023-05-02T20:23:29.864Z,102113.94
2023-05-02T20:26:14.262Z,102122.66
2023-05-02T20:28:58.942Z,102113.81
2023-05-02T20:31:42.647Z,102124.06
2023-05-02T20:34:26.212Z,102122.66
2023-05-02T20:37:11.821Z,102127.59
2023-05-02T20:39:56.408Z,102128.56
2023-05-02T20:42:42.682Z,102127.06
2023-05-02T20:45:26.374Z,102140.28
2023-05-02T20:48:15.961Z,102136.72
2023-05-02T20:50:59.629Z,102140.28
2023-05-02T20:53:43.334Z,102153.09
2023-05-02T20:56:27.053Z,102148.97
2023-05-02T20:59:11.649Z,102143.00
2023-05-02T21:01:55.282Z,102154.03
2023-05-02T21:04:39.145Z,102158.09
2023-05-02T21:07:22.702Z,102167.47
2023-05-02T21:10:09.358Z,102161.38
2023-05-02T21:12:52.951Z,102167.91
2023-05-02T21:15:36.552Z,102171.28
2023-05-02T21:18:21.774Z,102177.13
2023-05-02T21:21:05.335Z,102166.78
2023-05-02T21:23:48.933Z,102176.06
2023-05-02T21:26:32.513Z,102178.31
2023-05-02T21:29:16.206Z,102171.16
2023-05-02T21:31:59.819Z,102175.03
2023-05-02T21:34:43.406Z,102170.91
2023-05-02T21:37:26.953Z,102171.19
2023-05-02T21:40:11.400Z,102174.22
2023-05-02T21:42:54.906Z,102174.22
2023-05-02T21:45:50.133Z,102179.44
2023-05-02T21:48:34.368Z,102175.91
2023-05-02T21:51:18.263Z,102175.09
2023-05-02T21:54:01.853Z,102185.88
2023-05-02T21:56:45.530Z,102171.66
2023-05-02T21:59:29.119Z,102177.56
2023-05-02T22:02:12.846Z,102178.16
2023-05-02T22:04:57.984Z,102185.75
2023-05-02T22:07:42.222Z,102174.41
2023-05-02T22:10:26.052Z,102173.56
2023-05-02T22:13:15.941Z,102177.97
2023-05-02T22:15:59.452Z,102181.31
2023-05-02T22:18:44.746Z,102181.28
2023-05-02T22:21:29.061Z,102189.31
2023-05-02T22:24:12.576Z,102194.63
2023-05-02T22:26:56.412Z,102188.75
2023-05-02T22:29:39.909Z,102199.38
2023-05-02T22:32:23.800Z,102196.34
2023-05-02T22:35:07.848Z,102200.94
2023-05-02T22:37:51.337Z,102202.38
2023-05-02T22:40:34.989Z,102205.09
2023-05-02T22:43:18.515Z,102212.22
2023-05-02T22:46:02.698Z,102215.22
2023-05-02T22:48:46.346Z,102211.41
2023-05-02T22:51:29.959Z,102209.56
2023-05-02T22:54:15.213Z,102227.75
2023-05-02T22:56:58.732Z,102215.34
2023-05-02T22:59:42.257Z,102215.69
2023-05-02T23:02:26.953Z,102223.47
2023-05-02T23:05:10.875Z,102225.69
2023-05-02T23:07:54.401Z,102219.47
2023-05-02T23:10:37.953Z,102229.59
2023-05-02T23:13:21.449Z,102225.56
2023-05-02T23:16:06.305Z,102226.03
2023-05-02T23:18:49.867Z,102235.16
2023-05-02T23:21:33.336Z,102230.16
2023-05-02T23:24:16.954Z,102237.63
2023-05-02T23:27:00.518Z,102238.50
2023-05-02T23:29:46.089Z,102237.69
2023-05-02T23:32:30.314Z,102237.91
2023-05-02T23:35:14.020Z,102237.41
2023-05-02T23:38:01.037Z,102235.34
2023-05-02T23:40:44.743Z,102235.56
2023-05-02T23:43:29.987Z,102232.44
2023-05-02T23:46:13.553Z,102232.50
2023-05-02T23:48:57.091Z,102238.88
2023-05-02T23:51:40.689Z,102248.50
2023-05-02T23:54:24.493Z,102244.34
2023-05-02T23:57:09.419Z,102242.09
2023-05-02T23:59:53.535Z,102237.75
